sensor_id;sensor_type;location;lat;lon;timestamp;P1;durP1;ratioP1;P2;durP2;ratioP2
23696;SDS011;48864;50.820;4.400;2022-10-22T00:01:14;15.68;;;4.05;;
23696;SDS011;48864;50.820;4.400;2022-10-22T00:03:39;9.82;;;3.95;;
23696;SDS011;48864;50.820;4.400;2022-10-22T00:06:05;14.55;;;4.10;;
23696;SDS011;48864;50.820;4.400;2022-10-22T00:08:31;11.18;;;3.55;;
23696;SDS011;48864;50.820;4.400;2022-10-22T00:10:57;8.93;;;3.63;;
23696;SDS011;48864;50.820;4.400;2022-10-22T00:13:22;15.82;;;3.80;;
23696;SDS011;48864;50.820;4.400;2022-10-22T00:15:48;11.07;;;3.53;;
23696;SDS011;48864;50.820;4.400;2022-10-22T00:18:14;11.38;;;3.55;;
23696;SDS011;48864;50.820;4.400;2022-10-22T00:20:40;11.20;;;3.90;;
23696;SDS011;48864;50.820;4.400;2022-10-22T00:23:06;12.25;;;3.38;;
23696;SDS011;48864;50.820;4.400;2022-10-22T00:25:33;18.20;;;3.95;;
23696;SDS011;48864;50.820;4.400;2022-10-22T00:27:59;10.20;;;3.40;;
23696;SDS011;48864;50.820;4.400;2022-10-22T00:30:25;7.20;;;3.30;;
23696;SDS011;48864;50.820;4.400;2022-10-22T00:32:51;11.30;;;3.55;;
23696;SDS011;48864;50.820;4.400;2022-10-22T00:35:19;10.73;;;3.55;;
23696;SDS011;48864;50.820;4.400;2022-10-22T00:37:44;12.65;;;3.63;;
23696;SDS011;48864;50.820;4.400;2022-10-22T00:40:10;7.97;;;3.50;;
23696;SDS011;48864;50.820;4.400;2022-10-22T00:42:36;11.98;;;3.60;;
23696;SDS011;48864;50.820;4.400;2022-10-22T00:47:30;16.30;;;3.63;;
23696;SDS011;48864;50.820;4.400;2022-10-22T00:50:02;11.25;;;3.42;;
23696;SDS011;48864;50.820;4.400;2022-10-22T00:52:31;10.88;;;3.70;;
23696;SDS011;48864;50.820;4.400;2022-10-22T00:54:57;10.90;;;3.28;;
23696;SDS011;48864;50.820;4.400;2022-10-22T00:57:23;8.85;;;3.45;;
23696;SDS011;48864;50.820;4.400;2022-10-22T00:59:49;14.02;;;3.88;;
23696;SDS011;48864;50.820;4.400;2022-10-22T01:02:15;12.63;;;3.92;;
23696;SDS011;48864;50.820;4.400;2022-10-22T01:04:41;9.40;;;3.47;;
23696;SDS011;48864;50.820;4.400;2022-10-22T01:07:09;13.52;;;3.65;;
23696;SDS011;48864;50.820;4.400;2022-10-22T01:09:46;9.63;;;3.58;;
23696;SDS011;48864;50.820;4.400;2022-10-22T01:18:06;11.68;;;3.42;;
23696;SDS011;48864;50.820;4.400;2022-10-22T01:31:33;10.02;;;3.00;;
23696;SDS011;48864;50.820;4.400;2022-10-22T01:34:01;7.22;;;3.25;;
23696;SDS011;48864;50.820;4.400;2022-10-22T01:36:28;10.40;;;3.15;;
23696;SDS011;48864;50.820;4.400;2022-10-22T01:38:58;11.38;;;3.25;;
23696;SDS011;48864;50.820;4.400;2022-10-22T01:41:26;10.48;;;3.17;;
23696;SDS011;48864;50.820;4.400;2022-10-22T01:43:53;8.27;;;3.13;;
23696;SDS011;48864;50.820;4.400;2022-10-22T01:46:19;10.55;;;2.90;;
23696;SDS011;48864;50.820;4.400;2022-10-22T01:49:11;10.70;;;3.10;;
23696;SDS011;48864;50.820;4.400;2022-10-22T01:54:37;11.32;;;3.13;;
23696;SDS011;48864;50.820;4.400;2022-10-22T01:57:26;11.52;;;3.20;;
23696;SDS011;48864;50.820;4.400;2022-10-22T02:00:12;9.48;;;3.10;;
23696;SDS011;48864;50.820;4.400;2022-10-22T02:03:43;9.57;;;3.00;;
23696;SDS011;48864;50.820;4.400;2022-10-22T02:05:42;8.68;;;2.72;;
23696;SDS011;48864;50.820;4.400;2022-10-22T02:08:09;11.25;;;2.60;;
23696;SDS011;48864;50.820;4.400;2022-10-22T02:10:44;9.48;;;2.75;;
23696;SDS011;48864;50.820;4.400;2022-10-22T02:13:13;11.85;;;2.75;;
23696;SDS011;48864;50.820;4.400;2022-10-22T02:15:42;8.15;;;2.40;;
23696;SDS011;48864;50.820;4.400;2022-10-22T02:18:10;10.05;;;2.78;;
23696;SDS011;48864;50.820;4.400;2022-10-22T02:20:38;8.77;;;3.28;;
23696;SDS011;48864;50.820;4.400;2022-10-22T02:23:06;11.55;;;3.15;;
23696;SDS011;48864;50.820;4.400;2022-10-22T02:28:28;5.93;;;2.22;;
23696;SDS011;48864;50.820;4.400;2022-10-22T02:31:21;10.00;;;2.33;;
23696;SDS011;48864;50.820;4.400;2022-10-22T02:33:51;7.80;;;2.75;;
23696;SDS011;48864;50.820;4.400;2022-10-22T02:36:18;8.90;;;2.40;;
23696;SDS011;48864;50.820;4.400;2022-10-22T02:38:45;8.98;;;2.47;;
23696;SDS011;48864;50.820;4.400;2022-10-22T02:41:14;10.57;;;2.50;;
23696;SDS011;48864;50.820;4.400;2022-10-22T02:43:41;9.18;;;2.40;;
23696;SDS011;48864;50.820;4.400;2022-10-22T02:46:09;7.57;;;2.10;;
23696;SDS011;48864;50.820;4.400;2022-10-22T02:48:35;6.35;;;2.60;;
23696;SDS011;48864;50.820;4.400;2022-10-22T02:51:02;11.30;;;2.70;;
23696;SDS011;48864;50.820;4.400;2022-10-22T02:53:27;8.60;;;2.30;;
23696;SDS011;48864;50.820;4.400;2022-10-22T02:55:53;12.88;;;2.20;;
23696;SDS011;48864;50.820;4.400;2022-10-22T02:58:18;9.13;;;2.78;;
23696;SDS011;48864;50.820;4.400;2022-10-22T03:00:44;7.88;;;2.22;;
23696;SDS011;48864;50.820;4.400;2022-10-22T03:03:09;10.00;;;2.53;;
23696;SDS011;48864;50.820;4.400;2022-10-22T03:05:35;12.73;;;2.53;;
23696;SDS011;48864;50.820;4.400;2022-10-22T03:08:00;10.80;;;3.10;;
23696;SDS011;48864;50.820;4.400;2022-10-22T03:10:26;8.98;;;2.42;;
23696;SDS011;48864;50.820;4.400;2022-10-22T03:12:52;6.10;;;2.20;;
23696;SDS011;48864;50.820;4.400;2022-10-22T03:15:17;6.18;;;1.85;;
23696;SDS011;48864;50.820;4.400;2022-10-22T03:17:43;10.15;;;2.53;;
23696;SDS011;48864;50.820;4.400;2022-10-22T03:20:08;5.55;;;2.00;;
23696;SDS011;48864;50.820;4.400;2022-10-22T03:22:34;11.43;;;2.30;;
23696;SDS011;48864;50.820;4.400;2022-10-22T03:25:04;6.90;;;2.17;;
23696;SDS011;48864;50.820;4.400;2022-10-22T03:27:34;7.75;;;2.05;;
23696;SDS011;48864;50.820;4.400;2022-10-22T03:30:02;9.18;;;2.88;;
23696;SDS011;48864;50.820;4.400;2022-10-22T03:32:30;7.88;;;2.47;;
23696;SDS011;48864;50.820;4.400;2022-10-22T03:34:56;9.60;;;2.90;;
23696;SDS011;48864;50.820;4.400;2022-10-22T03:37:21;8.02;;;2.25;;
23696;SDS011;48864;50.820;4.400;2022-10-22T03:39:49;9.93;;;2.35;;
23696;SDS011;48864;50.820;4.400;2022-10-22T03:42:15;4.97;;;1.90;;
23696;SDS011;48864;50.820;4.400;2022-10-22T03:44:41;8.32;;;2.25;;
23696;SDS011;48864;50.820;4.400;2022-10-22T03:47:13;6.47;;;1.80;;
23696;SDS011;48864;50.820;4.400;2022-10-22T03:49:39;12.73;;;2.00;;
23696;SDS011;48864;50.820;4.400;2022-10-22T03:52:08;8.70;;;1.95;;
23696;SDS011;48864;50.820;4.400;2022-10-22T03:54:35;6.10;;;2.00;;
23696;SDS011;48864;50.820;4.400;2022-10-22T03:57:01;4.95;;;1.70;;
23696;SDS011;48864;50.820;4.400;2022-10-22T03:59:27;10.05;;;2.10;;
23696;SDS011;48864;50.820;4.400;2022-10-22T04:01:53;9.27;;;2.10;;
23696;SDS011;48864;50.820;4.400;2022-10-22T04:04:18;9.05;;;1.90;;
23696;SDS011;48864;50.820;4.400;2022-10-22T04:06:44;12.48;;;2.13;;
23696;SDS011;48864;50.820;4.400;2022-10-22T04:09:09;7.40;;;1.95;;
23696;SDS011;48864;50.820;4.400;2022-10-22T04:11:35;7.85;;;2.00;;
23696;SDS011;48864;50.820;4.400;2022-10-22T04:14:01;11.77;;;2.33;;
23696;SDS011;48864;50.820;4.400;2022-10-22T04:16:26;8.15;;;1.85;;
23696;SDS011;48864;50.820;4.400;2022-10-22T04:18:56;10.48;;;2.10;;
23696;SDS011;48864;50.820;4.400;2022-10-22T04:21:22;7.90;;;2.00;;
23696;SDS011;48864;50.820;4.400;2022-10-22T04:23:49;8.57;;;1.88;;
23696;SDS011;48864;50.820;4.400;2022-10-22T04:26:17;12.18;;;2.33;;
23696;SDS011;48864;50.820;4.400;2022-10-22T04:28:44;9.18;;;2.00;;
23696;SDS011;48864;50.820;4.400;2022-10-22T04:31:11;11.30;;;3.00;;
23696;SDS011;48864;50.820;4.400;2022-10-22T04:33:39;8.73;;;3.58;;
23696;SDS011;48864;50.820;4.400;2022-10-22T04:36:11;12.60;;;3.70;;
23696;SDS011;48864;50.820;4.400;2022-10-22T04:38:39;10.98;;;3.25;;
23696;SDS011;48864;50.820;4.400;2022-10-22T04:43:42;7.00;;;3.30;;
23696;SDS011;48864;50.820;4.400;2022-10-22T04:46:08;7.93;;;3.20;;
23696;SDS011;48864;50.820;4.400;2022-10-22T04:48:36;9.93;;;3.50;;
23696;SDS011;48864;50.820;4.400;2022-10-22T04:51:03;8.50;;;3.15;;
23696;SDS011;48864;50.820;4.400;2022-10-22T04:53:30;7.38;;;3.10;;
23696;SDS011;48864;50.820;4.400;2022-10-22T04:56:05;10.40;;;3.13;;
23696;SDS011;48864;50.820;4.400;2022-10-22T04:58:35;10.68;;;3.30;;
23696;SDS011;48864;50.820;4.400;2022-10-22T05:01:35;9.40;;;3.25;;
23696;SDS011;48864;50.820;4.400;2022-10-22T05:03:58;8.88;;;3.20;;
23696;SDS011;48864;50.820;4.400;2022-10-22T05:06:26;11.60;;;3.42;;
23696;SDS011;48864;50.820;4.400;2022-10-22T05:08:53;9.60;;;3.50;;
23696;SDS011;48864;50.820;4.400;2022-10-22T05:11:22;7.28;;;3.60;;
23696;SDS011;48864;50.820;4.400;2022-10-22T05:13:56;12.30;;;4.15;;
23696;SDS011;48864;50.820;4.400;2022-10-22T05:16:23;11.75;;;3.50;;
23696;SDS011;48864;50.820;4.400;2022-10-22T05:18:49;14.90;;;3.50;;
23696;SDS011;48864;50.820;4.400;2022-10-22T05:23:45;8.55;;;3.35;;
23696;SDS011;48864;50.820;4.400;2022-10-22T05:26:12;11.40;;;3.40;;
23696;SDS011;48864;50.820;4.400;2022-10-22T05:28:58;10.93;;;3.50;;
23696;SDS011;48864;50.820;4.400;2022-10-22T05:31:23;6.72;;;3.20;;
23696;SDS011;48864;50.820;4.400;2022-10-22T05:33:49;9.93;;;3.65;;
23696;SDS011;48864;50.820;4.400;2022-10-22T05:36:18;12.02;;;3.80;;
23696;SDS011;48864;50.820;4.400;2022-10-22T05:38:46;9.45;;;3.47;;
23696;SDS011;48864;50.820;4.400;2022-10-22T05:41:19;9.30;;;3.35;;
23696;SDS011;48864;50.820;4.400;2022-10-22T05:43:46;5.40;;;3.10;;
23696;SDS011;48864;50.820;4.400;2022-10-22T05:46:16;10.27;;;3.88;;
23696;SDS011;48864;50.820;4.400;2022-10-22T05:48:47;10.95;;;3.30;;
23696;SDS011;48864;50.820;4.400;2022-10-22T05:51:14;10.95;;;3.10;;
23696;SDS011;48864;50.820;4.400;2022-10-22T05:53:41;5.93;;;2.85;;
23696;SDS011;48864;50.820;4.400;2022-10-22T05:59:26;10.32;;;3.72;;
23696;SDS011;48864;50.820;4.400;2022-10-22T06:01:54;8.80;;;3.10;;
23696;SDS011;48864;50.820;4.400;2022-10-22T06:04:20;8.88;;;3.63;;
23696;SDS011;48864;50.820;4.400;2022-10-22T06:06:50;10.60;;;3.28;;
23696;SDS011;48864;50.820;4.400;2022-10-22T06:09:28;10.80;;;3.67;;
23696;SDS011;48864;50.820;4.400;2022-10-22T06:11:58;6.97;;;3.15;;
23696;SDS011;48864;50.820;4.400;2022-10-22T06:14:26;7.20;;;3.28;;
23696;SDS011;48864;50.820;4.400;2022-10-22T06:16:52;9.98;;;3.30;;
23696;SDS011;48864;50.820;4.400;2022-10-22T06:19:20;7.72;;;3.40;;
23696;SDS011;48864;50.820;4.400;2022-10-22T06:21:49;7.75;;;3.08;;
23696;SDS011;48864;50.820;4.400;2022-10-22T06:24:15;10.02;;;3.50;;
23696;SDS011;48864;50.820;4.400;2022-10-22T06:26:42;10.98;;;3.17;;
23696;SDS011;48864;50.820;4.400;2022-10-22T06:29:08;11.38;;;3.33;;
23696;SDS011;48864;50.820;4.400;2022-10-22T06:31:34;10.05;;;3.05;;
23696;SDS011;48864;50.820;4.400;2022-10-22T06:34:05;9.63;;;3.50;;
23696;SDS011;48864;50.820;4.400;2022-10-22T06:36:32;9.93;;;3.67;;
23696;SDS011;48864;50.820;4.400;2022-10-22T06:38:58;9.48;;;3.13;;
23696;SDS011;48864;50.820;4.400;2022-10-22T06:41:25;6.38;;;3.20;;
23696;SDS011;48864;50.820;4.400;2022-10-22T06:43:51;9.68;;;3.40;;
23696;SDS011;48864;50.820;4.400;2022-10-22T06:46:19;6.68;;;3.10;;
23696;SDS011;48864;50.820;4.400;2022-10-22T06:48:49;8.07;;;2.90;;
23696;SDS011;48864;50.820;4.400;2022-10-22T06:51:23;10.82;;;3.33;;
23696;SDS011;48864;50.820;4.400;2022-10-22T06:53:50;10.15;;;3.75;;
23696;SDS011;48864;50.820;4.400;2022-10-22T06:56:17;8.98;;;3.58;;
23696;SDS011;48864;50.820;4.400;2022-10-22T06:58:48;10.40;;;3.15;;
23696;SDS011;48864;50.820;4.400;2022-10-22T07:01:16;11.30;;;1.80;;
23696;SDS011;48864;50.820;4.400;2022-10-22T07:03:43;10.57;;;1.75;;
23696;SDS011;48864;50.820;4.400;2022-10-22T07:06:10;8.15;;;1.80;;
23696;SDS011;48864;50.820;4.400;2022-10-22T07:08:39;8.52;;;1.77;;
23696;SDS011;48864;50.820;4.400;2022-10-22T07:13:33;7.55;;;1.80;;
23696;SDS011;48864;50.820;4.400;2022-10-22T07:15:58;11.57;;;1.98;;
23696;SDS011;48864;50.820;4.400;2022-10-22T07:18:24;8.10;;;1.75;;
23696;SDS011;48864;50.820;4.400;2022-10-22T07:20:50;9.90;;;1.73;;
23696;SDS011;48864;50.820;4.400;2022-10-22T07:23:16;14.90;;;2.50;;
23696;SDS011;48864;50.820;4.400;2022-10-22T07:25:42;9.50;;;1.95;;
23696;SDS011;48864;50.820;4.400;2022-10-22T07:28:08;9.13;;;1.92;;
23696;SDS011;48864;50.820;4.400;2022-10-22T07:30:35;9.27;;;2.38;;
23696;SDS011;48864;50.820;4.400;2022-10-22T07:33:01;6.00;;;1.58;;
23696;SDS011;48864;50.820;4.400;2022-10-22T07:35:27;9.98;;;1.98;;
23696;SDS011;48864;50.820;4.400;2022-10-22T07:37:53;8.55;;;2.25;;
23696;SDS011;48864;50.820;4.400;2022-10-22T07:40:18;10.27;;;1.95;;
23696;SDS011;48864;50.820;4.400;2022-10-22T07:42:44;4.72;;;1.70;;
23696;SDS011;48864;50.820;4.400;2022-10-22T07:45:10;9.05;;;2.50;;
23696;SDS011;48864;50.820;4.400;2022-10-22T07:47:35;8.40;;;1.58;;
23696;SDS011;48864;50.820;4.400;2022-10-22T07:50:01;7.68;;;2.00;;
23696;SDS011;48864;50.820;4.400;2022-10-22T07:52:27;8.38;;;2.30;;
23696;SDS011;48864;50.820;4.400;2022-10-22T07:54:53;7.85;;;1.90;;
23696;SDS011;48864;50.820;4.400;2022-10-22T07:57:19;9.73;;;2.17;;
23696;SDS011;48864;50.820;4.400;2022-10-22T07:59:44;6.93;;;2.10;;
23696;SDS011;48864;50.820;4.400;2022-10-22T08:02:10;6.35;;;1.60;;
23696;SDS011;48864;50.820;4.400;2022-10-22T08:04:37;10.93;;;1.90;;
23696;SDS011;48864;50.820;4.400;2022-10-22T08:07:04;5.25;;;1.52;;
23696;SDS011;48864;50.820;4.400;2022-10-22T08:09:31;10.05;;;1.95;;
23696;SDS011;48864;50.820;4.400;2022-10-22T08:11:57;8.07;;;1.60;;
23696;SDS011;48864;50.820;4.400;2022-10-22T08:14:22;6.13;;;1.85;;
23696;SDS011;48864;50.820;4.400;2022-10-22T08:16:48;7.32;;;1.73;;
23696;SDS011;48864;50.820;4.400;2022-10-22T08:19:14;5.75;;;1.45;;
23696;SDS011;48864;50.820;4.400;2022-10-22T08:21:46;5.25;;;1.52;;
23696;SDS011;48864;50.820;4.400;2022-10-22T08:24:12;6.65;;;1.80;;
23696;SDS011;48864;50.820;4.400;2022-10-22T08:26:39;8.43;;;2.00;;
23696;SDS011;48864;50.820;4.400;2022-10-22T08:29:06;6.10;;;1.75;;
23696;SDS011;48864;50.820;4.400;2022-10-22T08:31:32;7.38;;;1.85;;
23696;SDS011;48864;50.820;4.400;2022-10-22T08:33:58;10.48;;;2.22;;
23696;SDS011;48864;50.820;4.400;2022-10-22T08:36:23;8.98;;;2.13;;
23696;SDS011;48864;50.820;4.400;2022-10-22T08:38:49;13.60;;;2.35;;
23696;SDS011;48864;50.820;4.400;2022-10-22T08:41:16;8.45;;;1.80;;
23696;SDS011;48864;50.820;4.400;2022-10-22T08:43:51;7.45;;;1.83;;
23696;SDS011;48864;50.820;4.400;2022-10-22T08:46:45;10.38;;;2.17;;
23696;SDS011;48864;50.820;4.400;2022-10-22T08:49:22;12.30;;;2.03;;
23696;SDS011;48864;50.820;4.400;2022-10-22T08:51:51;5.75;;;1.70;;
23696;SDS011;48864;50.820;4.400;2022-10-22T08:54:27;8.48;;;2.30;;
23696;SDS011;48864;50.820;4.400;2022-10-22T09:00:42;8.95;;;1.70;;
23696;SDS011;48864;50.820;4.400;2022-10-22T09:08:21;9.88;;;1.77;;
23696;SDS011;48864;50.820;4.400;2022-10-22T09:10:57;6.65;;;1.67;;
23696;SDS011;48864;50.820;4.400;2022-10-22T09:13:27;9.23;;;1.77;;
23696;SDS011;48864;50.820;4.400;2022-10-22T09:15:54;8.15;;;1.88;;
23696;SDS011;48864;50.820;4.400;2022-10-22T09:18:39;10.70;;;2.17;;
23696;SDS011;48864;50.820;4.400;2022-10-22T09:21:20;10.90;;;1.60;;
23696;SDS011;48864;50.820;4.400;2022-10-22T09:23:59;14.55;;;1.98;;
23696;SDS011;48864;50.820;4.400;2022-10-22T09:26:57;9.18;;;1.90;;
23696;SDS011;48864;50.820;4.400;2022-10-22T09:29:24;9.85;;;2.00;;
23696;SDS011;48864;50.820;4.400;2022-10-22T09:31:58;12.80;;;2.03;;
23696;SDS011;48864;50.820;4.400;2022-10-22T09:34:25;8.15;;;2.00;;
23696;SDS011;48864;50.820;4.400;2022-10-22T09:37:00;8.02;;;1.70;;
23696;SDS011;48864;50.820;4.400;2022-10-22T09:39:31;8.25;;;1.50;;
23696;SDS011;48864;50.820;4.400;2022-10-22T09:42:01;8.90;;;2.58;;
23696;SDS011;48864;50.820;4.400;2022-10-22T09:44:39;11.73;;;2.17;;
23696;SDS011;48864;50.820;4.400;2022-10-22T09:47:24;4.57;;;1.50;;
23696;SDS011;48864;50.820;4.400;2022-10-22T09:52:45;11.55;;;2.10;;
23696;SDS011;48864;50.820;4.400;2022-10-22T09:55:38;16.52;;;2.22;;
23696;SDS011;48864;50.820;4.400;2022-10-22T09:58:08;7.45;;;1.92;;
23696;SDS011;48864;50.820;4.400;2022-10-22T10:00:37;8.85;;;2.10;;
23696;SDS011;48864;50.820;4.400;2022-10-22T10:03:03;8.80;;;1.85;;
23696;SDS011;48864;50.820;4.400;2022-10-22T10:05:31;13.10;;;2.08;;
23696;SDS011;48864;50.820;4.400;2022-10-22T10:07:58;8.05;;;1.80;;
23696;SDS011;48864;50.820;4.400;2022-10-22T10:10:52;6.93;;;2.15;;
23696;SDS011;48864;50.820;4.400;2022-10-22T10:16:31;9.20;;;1.85;;
23696;SDS011;48864;50.820;4.400;2022-10-22T10:30:12;10.18;;;1.70;;
23696;SDS011;48864;50.820;4.400;2022-10-22T10:38:09;9.95;;;1.88;;
23696;SDS011;48864;50.820;4.400;2022-10-22T10:40:50;10.07;;;2.55;;
23696;SDS011;48864;50.820;4.400;2022-10-22T10:43:37;11.85;;;1.90;;
23696;SDS011;48864;50.820;4.400;2022-10-22T10:46:17;5.75;;;1.80;;
23696;SDS011;48864;50.820;4.400;2022-10-22T10:48:48;14.90;;;2.10;;
23696;SDS011;48864;50.820;4.400;2022-10-22T10:59:18;9.43;;;1.73;;
23696;SDS011;48864;50.820;4.400;2022-10-22T11:07:39;13.68;;;1.90;;
23696;SDS011;48864;50.820;4.400;2022-10-22T11:16:00;5.13;;;1.50;;
23696;SDS011;48864;50.820;4.400;2022-10-22T11:18:46;10.15;;;1.73;;
23696;SDS011;48864;50.820;4.400;2022-10-22T11:26:35;8.75;;;1.70;;
23696;SDS011;48864;50.820;4.400;2022-10-22T11:29:02;8.75;;;1.75;;
23696;SDS011;48864;50.820;4.400;2022-10-22T11:31:31;6.22;;;1.80;;
23696;SDS011;48864;50.820;4.400;2022-10-22T11:34:03;7.70;;;1.80;;
23696;SDS011;48864;50.820;4.400;2022-10-22T11:36:44;7.30;;;1.63;;
23696;SDS011;48864;50.820;4.400;2022-10-22T11:41:58;8.85;;;2.30;;
23696;SDS011;48864;50.820;4.400;2022-10-22T11:44:28;11.73;;;2.05;;
23696;SDS011;48864;50.820;4.400;2022-10-22T11:52:48;12.88;;;1.55;;
23696;SDS011;48864;50.820;4.400;2022-10-22T11:55:28;7.32;;;1.40;;
23696;SDS011;48864;50.820;4.400;2022-10-22T11:58:00;11.18;;;1.73;;
23696;SDS011;48864;50.820;4.400;2022-10-22T12:00:47;4.70;;;1.52;;
23696;SDS011;48864;50.820;4.400;2022-10-22T12:03:18;7.45;;;2.15;;
23696;SDS011;48864;50.820;4.400;2022-10-22T12:16:26;6.93;;;1.92;;
23696;SDS011;48864;50.820;4.400;2022-10-22T12:22:07;5.07;;;2.20;;
23696;SDS011;48864;50.820;4.400;2022-10-22T12:24:45;6.45;;;1.48;;
23696;SDS011;48864;50.820;4.400;2022-10-22T12:32:42;4.53;;;1.50;;
23696;SDS011;48864;50.820;4.400;2022-10-22T12:35:20;7.63;;;1.90;;
23696;SDS011;48864;50.820;4.400;2022-10-22T12:37:51;8.05;;;1.83;;
23696;SDS011;48864;50.820;4.400;2022-10-22T12:40:24;6.50;;;2.08;;
23696;SDS011;48864;50.820;4.400;2022-10-22T12:45:18;6.60;;;1.60;;
23696;SDS011;48864;50.820;4.400;2022-10-22T12:47:47;7.15;;;1.50;;
23696;SDS011;48864;50.820;4.400;2022-10-22T12:50:24;6.70;;;1.75;;
23696;SDS011;48864;50.820;4.400;2022-10-22T12:52:59;6.88;;;1.40;;
23696;SDS011;48864;50.820;4.400;2022-10-22T12:55:25;6.32;;;1.65;;
23696;SDS011;48864;50.820;4.400;2022-10-22T12:57:51;5.65;;;1.20;;
23696;SDS011;48864;50.820;4.400;2022-10-22T13:00:27;3.80;;;1.17;;
23696;SDS011;48864;50.820;4.400;2022-10-22T13:02:58;11.10;;;2.05;;
23696;SDS011;48864;50.820;4.400;2022-10-22T13:05:30;5.93;;;1.45;;
23696;SDS011;48864;50.820;4.400;2022-10-22T13:08:04;7.88;;;1.55;;
23696;SDS011;48864;50.820;4.400;2022-10-22T13:10:35;4.30;;;1.38;;
23696;SDS011;48864;50.820;4.400;2022-10-22T13:13:03;6.55;;;1.52;;
23696;SDS011;48864;50.820;4.400;2022-10-22T13:20:55;7.07;;;1.35;;
23696;SDS011;48864;50.820;4.400;2022-10-22T13:23:27;3.58;;;1.30;;
23696;SDS011;48864;50.820;4.400;2022-10-22T13:25:59;4.18;;;1.45;;
23696;SDS011;48864;50.820;4.400;2022-10-22T13:28:25;7.25;;;1.60;;
23696;SDS011;48864;50.820;4.400;2022-10-22T13:30:55;7.13;;;1.77;;
23696;SDS011;48864;50.820;4.400;2022-10-22T13:34:27;9.68;;;1.63;;
23696;SDS011;48864;50.820;4.400;2022-10-22T13:36:23;4.65;;;1.30;;
23696;SDS011;48864;50.820;4.400;2022-10-22T13:38:49;7.25;;;1.88;;
23696;SDS011;48864;50.820;4.400;2022-10-22T13:41:23;5.63;;;1.42;;
23696;SDS011;48864;50.820;4.400;2022-10-22T13:43:49;8.60;;;1.55;;
23696;SDS011;48864;50.820;4.400;2022-10-22T13:46:17;5.32;;;1.50;;
23696;SDS011;48864;50.820;4.400;2022-10-22T13:48:44;7.85;;;1.70;;
23696;SDS011;48864;50.820;4.400;2022-10-22T13:51:17;5.88;;;1.50;;
23696;SDS011;48864;50.820;4.400;2022-10-22T13:53:45;4.50;;;1.23;;
23696;SDS011;48864;50.820;4.400;2022-10-22T13:56:12;4.45;;;1.40;;
23696;SDS011;48864;50.820;4.400;2022-10-22T13:58:39;8.30;;;1.60;;
23696;SDS011;48864;50.820;4.400;2022-10-22T14:01:07;7.68;;;1.48;;
23696;SDS011;48864;50.820;4.400;2022-10-22T14:03:48;5.28;;;1.38;;
23696;SDS011;48864;50.820;4.400;2022-10-22T14:06:16;5.82;;;1.48;;
23696;SDS011;48864;50.820;4.400;2022-10-22T14:08:44;6.43;;;1.50;;
23696;SDS011;48864;50.820;4.400;2022-10-22T14:11:12;4.43;;;1.38;;
23696;SDS011;48864;50.820;4.400;2022-10-22T14:13:38;5.90;;;1.48;;
23696;SDS011;48864;50.820;4.400;2022-10-22T14:16:05;5.97;;;1.73;;
23696;SDS011;48864;50.820;4.400;2022-10-22T14:18:32;4.82;;;1.20;;
23696;SDS011;48864;50.820;4.400;2022-10-22T14:21:00;4.38;;;1.23;;
23696;SDS011;48864;50.820;4.400;2022-10-22T14:23:32;5.65;;;2.00;;
23696;SDS011;48864;50.820;4.400;2022-10-22T14:26:00;5.88;;;1.38;;
23696;SDS011;48864;50.820;4.400;2022-10-22T14:28:27;7.45;;;1.80;;
23696;SDS011;48864;50.820;4.400;2022-10-22T14:30:54;5.28;;;1.58;;
23696;SDS011;48864;50.820;4.400;2022-10-22T14:33:22;8.82;;;1.40;;
23696;SDS011;48864;50.820;4.400;2022-10-22T14:35:51;5.15;;;1.30;;
23696;SDS011;48864;50.820;4.400;2022-10-22T14:38:17;4.07;;;1.10;;
23696;SDS011;48864;50.820;4.400;2022-10-22T14:40:42;5.00;;;1.50;;
23696;SDS011;48864;50.820;4.400;2022-10-22T14:43:17;4.35;;;1.30;;
23696;SDS011;48864;50.820;4.400;2022-10-22T14:45:50;9.82;;;1.92;;
23696;SDS011;48864;50.820;4.400;2022-10-22T14:48:16;5.53;;;1.60;;
23696;SDS011;48864;50.820;4.400;2022-10-22T14:50:45;10.02;;;1.95;;
23696;SDS011;48864;50.820;4.400;2022-10-22T14:53:14;4.70;;;1.42;;
23696;SDS011;48864;50.820;4.400;2022-10-22T14:55:41;6.20;;;1.50;;
23696;SDS011;48864;50.820;4.400;2022-10-22T14:58:08;7.93;;;1.90;;
23696;SDS011;48864;50.820;4.400;2022-10-22T15:00:34;7.43;;;1.50;;
23696;SDS011;48864;50.820;4.400;2022-10-22T15:03:01;10.35;;;7.60;;
23696;SDS011;48864;50.820;4.400;2022-10-22T15:05:27;6.78;;;6.13;;
23696;SDS011;48864;50.820;4.400;2022-10-22T15:07:53;7.70;;;6.95;;
23696;SDS011;48864;50.820;4.400;2022-10-22T15:10:19;6.97;;;6.38;;
23696;SDS011;48864;50.820;4.400;2022-10-22T15:12:44;10.02;;;6.60;;
23696;SDS011;48864;50.820;4.400;2022-10-22T15:15:10;10.52;;;6.95;;
23696;SDS011;48864;50.820;4.400;2022-10-22T15:17:36;7.63;;;6.93;;
23696;SDS011;48864;50.820;4.400;2022-10-22T15:20:02;9.32;;;6.35;;
23696;SDS011;48864;50.820;4.400;2022-10-22T15:22:30;10.15;;;6.78;;
23696;SDS011;48864;50.820;4.400;2022-10-22T15:24:59;6.63;;;5.82;;
23696;SDS011;48864;50.820;4.400;2022-10-22T15:27:29;10.88;;;7.72;;
23696;SDS011;48864;50.820;4.400;2022-10-22T15:29:55;11.55;;;6.70;;
23696;SDS011;48864;50.820;4.400;2022-10-22T15:32:23;8.05;;;7.07;;
23696;SDS011;48864;50.820;4.400;2022-10-22T15:34:51;8.75;;;6.53;;
23696;SDS011;48864;50.820;4.400;2022-10-22T15:37:18;8.35;;;6.63;;
23696;SDS011;48864;50.820;4.400;2022-10-22T15:39:44;6.85;;;6.13;;
23696;SDS011;48864;50.820;4.400;2022-10-22T15:42:10;10.93;;;6.43;;
23696;SDS011;48864;50.820;4.400;2022-10-22T15:44:35;12.13;;;7.00;;
23696;SDS011;48864;50.820;4.400;2022-10-22T15:47:04;7.93;;;6.55;;
23696;SDS011;48864;50.820;4.400;2022-10-22T15:49:31;9.40;;;6.25;;
23696;SDS011;48864;50.820;4.400;2022-10-22T15:51:58;7.90;;;6.55;;
23696;SDS011;48864;50.820;4.400;2022-10-22T15:54:25;7.95;;;6.15;;
23696;SDS011;48864;50.820;4.400;2022-10-22T15:56:53;9.07;;;6.78;;
23696;SDS011;48864;50.820;4.400;2022-10-22T15:59:19;9.60;;;6.72;;
23696;SDS011;48864;50.820;4.400;2022-10-22T16:01:46;7.53;;;6.32;;
23696;SDS011;48864;50.820;4.400;2022-10-22T16:04:12;8.25;;;6.22;;
23696;SDS011;48864;50.820;4.400;2022-10-22T16:06:40;8.88;;;6.47;;
23696;SDS011;48864;50.820;4.400;2022-10-22T16:09:13;8.25;;;5.40;;
23696;SDS011;48864;50.820;4.400;2022-10-22T16:11:41;8.02;;;6.38;;
23696;SDS011;48864;50.820;4.400;2022-10-22T16:14:09;11.05;;;6.07;;
23696;SDS011;48864;50.820;4.400;2022-10-22T16:16:36;9.05;;;6.18;;
23696;SDS011;48864;50.820;4.400;2022-10-22T16:19:06;8.25;;;6.55;;
23696;SDS011;48864;50.820;4.400;2022-10-22T16:21:33;9.27;;;6.22;;
23696;SDS011;48864;50.820;4.400;2022-10-22T16:24:00;8.65;;;6.72;;
23696;SDS011;48864;50.820;4.400;2022-10-22T16:26:26;11.20;;;7.05;;
23696;SDS011;48864;50.820;4.400;2022-10-22T16:28:51;8.60;;;6.40;;
23696;SDS011;48864;50.820;4.400;2022-10-22T16:31:17;10.45;;;6.85;;
23696;SDS011;48864;50.820;4.400;2022-10-22T16:33:46;15.00;;;10.48;;
23696;SDS011;48864;50.820;4.400;2022-10-22T16:36:12;13.18;;;9.57;;
23696;SDS011;48864;50.820;4.400;2022-10-22T16:38:44;12.68;;;9.00;;
23696;SDS011;48864;50.820;4.400;2022-10-22T16:41:16;8.20;;;6.85;;
23696;SDS011;48864;50.820;4.400;2022-10-22T16:43:48;12.68;;;8.25;;
23696;SDS011;48864;50.820;4.400;2022-10-22T16:46:15;8.43;;;7.15;;
23696;SDS011;48864;50.820;4.400;2022-10-22T16:48:48;10.13;;;7.75;;
23696;SDS011;48864;50.820;4.400;2022-10-22T16:51:18;12.98;;;7.55;;
23696;SDS011;48864;50.820;4.400;2022-10-22T16:53:46;9.25;;;7.88;;
23696;SDS011;48864;50.820;4.400;2022-10-22T16:56:12;7.50;;;6.63;;
23696;SDS011;48864;50.820;4.400;2022-10-22T16:58:49;7.30;;;6.60;;
23696;SDS011;48864;50.820;4.400;2022-10-22T17:01:19;6.82;;;2.28;;
23696;SDS011;48864;50.820;4.400;2022-10-22T17:03:46;5.40;;;2.65;;